Time;durP1;ratioP1;P1;durP2;ratioP2;P2;SDS_P1;SDS_P2;PMS_P1;PMS_P2;Temp;Humidity;BMP_temperature;BMP_pressure;BME280_temperature;BME280_humidity;BME280_pressure;Samples;Min_cycle;Max_cycle;Signal;HPM_P1;HPM_P2
2021/08/06 00:00:22;;;;;;;3.15;2.90;;;20.20;99.90;;;;;;5091875;28;20035;-40
2021/08/06 00:02:47;;;;;;;3.65;3.30;;;20.20;99.90;;;;;;5090417;28;20562;-41
2021/08/06 00:05:13;;;;;;;3.53;3.13;;;20.10;99.90;;;;;;5091888;28;20061;-40
2021/08/06 00:07:39;;;;;;;3.53;3.03;;;20.10;99.90;;;;;;5091639;28;20490;-42
2021/08/06 00:10:08;;;;;;;2.95;2.70;;;20.10;99.90;;;;;;5090222;28;20056;-38
2021/08/06 00:12:33;;;;;;;3.30;2.60;;;20.10;99.90;;;;;;5090036;28;20024;-42
2021/08/06 00:14:59;;;;;;;3.33;3.03;;;20.10;99.90;;;;;;5090895;28;20490;-39
2021/08/06 00:17:24;;;;;;;3.20;2.80;;;20.10;99.90;;;;;;5090657;28;20024;-40
2021/08/06 00:19:50;;;;;;;3.15;2.95;;;20.10;99.90;;;;;;5090202;28;20036;-39
2021/08/06 00:22:15;;;;;;;3.70;3.00;;;20.10;99.90;;;;;;5091875;28;20110;-41
2021/08/06 00:24:41;;;;;;;3.33;3.03;;;20.10;99.90;;;;;;5090426;28;20116;-39
2021/08/06 00:27:16;;;;;;;4.15;3.00;;;20.00;99.90;;;;;;5091183;28;20034;-41
2021/08/06 00:29:53;;;;;;;2.95;2.65;;;20.10;99.90;;;;;;5090798;28;20016;-37
2021/08/06 00:32:19;;;;;;;3.22;2.92;;;20.10;99.90;;;;;;5091229;28;20017;-41
2021/08/06 00:34:53;;;;;;;3.08;2.80;;;20.00;99.90;;;;;;5090756;28;20026;-37
2021/08/06 00:37:19;;;;;;;3.97;3.03;;;20.00;99.90;;;;;;5090817;28;20032;-41
2021/08/06 00:39:48;;;;;;;3.08;2.78;;;20.00;99.90;;;;;;5090101;28;20036;-41
2021/08/06 00:42:16;;;;;;;3.17;2.97;;;20.00;99.90;;;;;;5091327;28;20024;-39
2021/08/06 00:44:41;;;;;;;3.08;2.78;;;19.90;99.90;;;;;;5089350;28;20587;-42
2021/08/06 00:47:07;;;;;;;3.83;3.08;;;19.90;99.90;;;;;;5090500;28;20028;-38
2021/08/06 00:49:33;;;;;;;2.85;2.65;;;19.90;99.90;;;;;;5089825;28;20028;-41
2021/08/06 00:51:59;;;;;;;3.72;2.60;;;19.90;99.90;;;;;;5090433;28;20020;-39
2021/08/06 00:54:25;;;;;;;3.00;2.80;;;19.90;99.90;;;;;;5090788;28;20064;-38
2021/08/06 00:56:51;;;;;;;3.20;2.58;;;19.80;99.90;;;;;;5090239;28;20013;-42
2021/08/06 00:59:16;;;;;;;3.00;2.70;;;19.80;99.90;;;;;;5090192;28;20436;-41
2021/08/06 01:01:49;;;;;;;3.15;2.85;;;19.80;99.90;;;;;;5090133;28;20451;-42
2021/08/06 01:04:17;;;;;;;;;;;19.80;99.90;;;;;;5071293;28;20024;-41
2021/08/06 01:07:05;;;;;;;2.78;2.50;;;19.80;99.90;;;;;;5084834;28;20052;-39
2021/08/06 01:09:55;;;;;;;3.97;2.67;;;19.70;99.90;;;;;;5089896;28;20071;-41
2021/08/06 01:12:27;;;;;;;2.92;2.50;;;19.70;99.90;;;;;;5090378;28;20111;-42
2021/08/06 01:14:59;;;;;;;2.90;2.60;;;19.70;99.90;;;;;;5089749;28;20073;-37
2021/08/06 01:17:25;;;;;;;3.63;2.35;;;19.70;99.90;;;;;;5089665;28;20031;-42
2021/08/06 01:19:54;;;;;;;2.90;2.63;;;19.70;99.90;;;;;;5090107;28;20024;-42
2021/08/06 01:22:43;;;;;;;2.97;2.30;;;19.70;99.90;;;;;;5090045;28;20046;-41
2021/08/06 01:25:13;;;;;;;3.03;2.42;;;19.70;99.90;;;;;;5047681;28;20711;-42
2021/08/06 01:27:41;;;;;;;2.55;2.35;;;19.70;99.90;;;;;;5085534;28;20514;-42
2021/08/06 01:30:11;;;;;;;3.35;2.80;;;19.70;99.90;;;;;;5089359;28;20028;-36
2021/08/06 01:32:36;;;;;;;2.67;2.47;;;19.70;99.90;;;;;;5089441;28;20024;-42
2021/08/06 01:35:04;;;;;;;2.75;2.40;;;19.70;99.90;;;;;;5089732;28;20088;-39
2021/08/06 01:37:30;;;;;;;3.67;2.20;;;19.70;99.90;;;;;;5089926;28;20058;-39
2021/08/06 01:39:56;;;;;;;3.20;2.70;;;19.70;99.90;;;;;;5089630;28;20028;-40
2021/08/06 01:42:42;;;;;;;3.45;2.60;;;19.70;99.90;;;;;;5089495;28;20020;-36
2021/08/06 01:45:15;;;;;;;2.83;2.40;;;19.70;99.90;;;;;;5089737;28;20061;-42
2021/08/06 01:47:46;;;;;;;2.80;2.50;;;19.80;99.90;;;;;;5089001;28;20024;-43
2021/08/06 01:50:15;;;;;;;3.63;2.60;;;19.80;99.90;;;;;;5089457;28;20035;-40
2021/08/06 01:52:48;;;;;;;3.70;3.20;;;19.80;99.90;;;;;;5087476;28;20787;-40
2021/08/06 01:55:14;;;;;;;;;;;19.70;99.90;;;;;;5089576;28;20391;-38
2021/08/06 01:57:40;;;;;;;2.50;2.28;;;19.70;99.90;;;;;;5088199;28;20351;-43
2021/08/06 02:00:07;;;;;;;2.85;2.60;;;19.70;99.90;;;;;;5090072;28;20031;-39
2021/08/06 02:02:34;;;;;;;2.85;2.60;;;19.70;99.90;;;;;;5087902;28;20058;-40
2021/08/06 02:05:03;;;;;;;3.13;2.70;;;19.80;99.90;;;;;;5089709;28;20379;-39
2021/08/06 02:07:28;;;;;;;2.50;2.30;;;19.80;99.90;;;;;;5088739;28;20024;-39
2021/08/06 02:09:57;;;;;;;2.83;2.55;;;19.80;99.90;;;;;;5088268;28;20040;-41
2021/08/06 02:12:22;;;;;;;2.90;2.53;;;19.80;99.90;;;;;;5088415;28;20020;-39
2021/08/06 02:14:48;;;;;;;2.95;2.55;;;19.80;99.90;;;;;;5089228;28;20506;-39
2021/08/06 02:17:14;;;;;;;2.60;2.40;;;19.80;99.90;;;;;;5089072;28;20024;-42
2021/08/06 02:19:42;;;;;;;2.60;2.28;;;19.80;99.90;;;;;;5088464;28;20048;-42
2021/08/06 02:22:09;;;;;;;4.18;2.60;;;19.80;99.90;;;;;;5089504;28;20020;-43
2021/08/06 02:24:39;;;;;;;2.78;2.58;;;19.80;99.90;;;;;;5087801;28;20020;-38
2021/08/06 02:27:05;;;;;;;3.08;2.38;;;19.80;99.90;;;;;;5088949;28;20115;-38
2021/08/06 02:29:32;;;;;;;3.20;2.50;;;19.60;99.90;;;;;;5088382;28;20637;-42
2021/08/06 02:32:00;;;;;;;2.50;2.30;;;19.50;99.90;;;;;;5088485;28;20494;-41
2021/08/06 02:34:27;;;;;;;2.50;2.30;;;19.50;99.90;;;;;;5088545;28;20064;-41
2021/08/06 02:36:52;;;;;;;2.13;1.92;;;19.40;99.90;;;;;;5089270;28;20027;-42
2021/08/06 02:39:24;;;;;;;2.15;1.98;;;19.40;99.90;;;;;;5088387;28;20036;-41
2021/08/06 02:41:50;;;;;;;2.25;1.65;;;19.30;99.90;;;;;;5091575;28;20024;-40
2021/08/06 02:44:17;;;;;;;2.10;1.80;;;19.40;99.90;;;;;;5091529;28;20045;-41
2021/08/06 02:46:43;;;;;;;2.45;2.00;;;19.30;99.90;;;;;;5092919;28;20024;-39
2021/08/06 02:49:09;;;;;;;4.53;2.03;;;19.30;99.90;;;;;;5093113;28;20095;-40
2021/08/06 02:51:35;;;;;;;2.75;1.75;;;19.40;99.90;;;;;;5091887;28;20473;-41
2021/08/06 02:54:01;;;;;;;3.08;1.98;;;19.40;99.90;;;;;;5092651;28;20491;-38
2021/08/06 02:56:27;;;;;;;2.47;2.25;;;19.40;99.90;;;;;;5092673;28;20471;-41
2021/08/06 02:58:53;;;;;;;1.85;1.75;;;19.40;99.90;;;;;;5092142;28;20028;-42
2021/08/06 03:01:18;;;;;;;2.70;2.30;;;19.40;99.90;;;;;;5092526;28;20095;-42
2021/08/06 03:03:44;;;;;;;2.55;2.30;;;19.40;99.90;;;;;;5092496;28;20062;-42
2021/08/06 03:06:09;;;;;;;2.40;2.20;;;19.40;99.90;;;;;;5092181;28;20099;-42
2021/08/06 03:08:35;;;;;;;2.38;2.17;;;19.40;99.90;;;;;;5092616;28;20032;-43
2021/08/06 03:11:01;;;;;;;2.40;2.20;;;19.50;99.90;;;;;;5092710;28;20020;-41
2021/08/06 03:13:26;;;;;;;2.10;1.90;;;19.50;99.90;;;;;;5091410;28;20057;-37
2021/08/06 03:15:52;;;;;;;2.28;2.05;;;19.50;99.90;;;;;;5092939;28;20012;-38
2021/08/06 03:18:17;;;;;;;2.70;2.50;;;19.50;99.90;;;;;;5092708;28;20028;-42
2021/08/06 03:20:43;;;;;;;2.00;1.90;;;19.50;99.90;;;;;;5091445;28;20481;-40
2021/08/06 03:23:09;;;;;;;3.10;2.25;;;19.50;99.90;;;;;;5092351;28;20012;-41
2021/08/06 03:25:34;;;;;;;2.50;2.30;;;19.50;99.90;;;;;;5092039;28;20020;-42
2021/08/06 03:28:00;;;;;;;2.42;2.20;;;19.50;99.90;;;;;;5091667;28;20054;-42
2021/08/06 03:30:26;;;;;;;3.33;2.30;;;19.50;99.90;;;;;;5091948;28;20024;-41
2021/08/06 03:32:52;;;;;;;2.25;2.05;;;19.50;99.90;;;;;;5092605;28;20024;-39
2021/08/06 03:35:17;;;;;;;3.05;2.00;;;19.50;99.90;;;;;;5092157;28;20024;-39
2021/08/06 03:37:43;;;;;;;2.83;2.50;;;19.50;99.90;;;;;;5091646;28;20016;-40
2021/08/06 03:40:11;;;;;;;2.35;2.00;;;19.50;99.90;;;;;;5091863;28;20130;-41
2021/08/06 03:42:40;;;;;;;2.90;2.60;;;19.50;99.90;;;;;;5091448;28;20020;-41
2021/08/06 03:45:06;;;;;;;2.40;2.20;;;19.50;99.90;;;;;;5092086;28;20055;-41
2021/08/06 03:47:34;;;;;;;2.50;2.15;;;19.50;99.90;;;;;;5090961;28;20020;-36
2021/08/06 03:49:59;;;;;;;2.70;2.50;;;19.50;99.90;;;;;;5092054;28;20020;-42
2021/08/06 03:52:25;;;;;;;3.65;2.35;;;19.50;99.90;;;;;;5090468;28;20016;-40
2021/08/06 03:54:51;;;;;;;2.80;2.50;;;19.50;99.90;;;;;;5070703;28;20102;-42
2021/08/06 03:57:17;;;;;;;3.15;2.10;;;19.40;99.90;;;;;;5085347;28;20111;-40
2021/08/06 03:59:42;;;;;;;2.30;2.10;;;19.40;99.90;;;;;;5091951;28;20028;-40
2021/08/06 04:02:08;;;;;;;2.58;2.38;;;19.40;99.90;;;;;;5090894;28;20028;-44
2021/08/06 04:04:34;;;;;;;3.28;2.63;;;19.40;99.90;;;;;;5091160;28;20468;-43
2021/08/06 04:06:59;;;;;;;2.58;2.38;;;19.30;99.90;;;;;;5091779;28;20009;-41
2021/08/06 04:09:25;;;;;;;3.15;2.58;;;19.20;99.90;;;;;;5090329;28;20889;-39
2021/08/06 04:11:51;;;;;;;2.53;2.33;;;19.10;99.90;;;;;;5091469;28;20348;-40
2021/08/06 04:14:16;;;;;;;3.85;2.50;;;18.90;99.90;;;;;;5091425;28;20060;-42
2021/08/06 04:16:42;;;;;;;4.07;2.55;;;18.80;99.90;;;;;;5090802;28;20024;-38
2021/08/06 04:19:08;;;;;;;2.72;2.47;;;18.70;99.90;;;;;;5090904;28;20203;-42
2021/08/06 04:21:33;;;;;;;2.67;2.20;;;18.50;99.90;;;;;;5091073;28;20031;-39
2021/08/06 04:23:59;;;;;;;2.50;2.30;;;18.50;99.90;;;;;;5091265;28;20018;-36
2021/08/06 04:26:24;;;;;;;2.20;2.00;;;18.40;99.90;;;;;;5090769;28;20024;-41
2021/08/06 04:28:50;;;;;;;3.15;2.30;;;18.40;99.90;;;;;;5090885;28;20028;-43
2021/08/06 04:31:15;;;;;;;2.53;2.17;;;18.30;99.90;;;;;;5090967;28;20363;-40
2021/08/06 04:33:41;;;;;;;1.85;1.75;;;18.30;99.90;;;;;;5090474;28;20013;-42
2021/08/06 04:36:07;;;;;;;2.10;1.90;;;18.30;99.90;;;;;;5090985;28;20196;-41
2021/08/06 04:38:32;;;;;;;3.50;2.10;;;18.30;99.90;;;;;;5089764;28;20103;-43
2021/08/06 04:40:58;;;;;;;2.10;1.92;;;18.30;99.90;;;;;;5090855;28;20027;-41
2021/08/06 04:43:23;;;;;;;2.40;2.20;;;18.30;99.90;;;;;;5089435;28;20020;-43
2021/08/06 04:45:49;;;;;;;5.22;1.90;;;18.30;99.90;;;;;;5091481;28;20020;-40
2021/08/06 04:48:19;;;;;;;2.80;1.88;;;18.30;99.90;;;;;;5090780;28;20027;-40
2021/08/06 04:50:45;;;;;;;2.78;1.75;;;18.30;99.90;;;;;;5090193;28;20048;-40
2021/08/06 04:53:11;;;;;;;1.70;1.60;;;18.40;99.90;;;;;;5090043;28;20097;-42
2021/08/06 04:55:36;;;;;;;2.05;1.92;;;18.40;99.90;;;;;;5090440;28;20073;-40
2021/08/06 04:58:03;;;;;;;1.83;1.60;;;18.40;99.90;;;;;;5089647;28;20016;-38
2021/08/06 05:00:29;;;;;;;2.13;1.90;;;18.50;99.90;;;;;;5090249;28;20479;-39
2021/08/06 05:02:54;;;;;;;2.85;1.75;;;18.50;99.90;;;;;;5090722;28;20070;-41
2021/08/06 05:05:20;;;;;;;2.70;1.98;;;18.50;99.90;;;;;;5089962;28;20024;-40
2021/08/06 05:07:50;;;;;;;2.38;1.70;;;18.60;99.90;;;;;;5090240;28;20040;-40
2021/08/06 05:10:17;;;;;;;3.88;1.75;;;18.60;99.90;;;;;;5089799;28;20542;-40
2021/08/06 05:12:42;;;;;;;2.80;2.22;;;18.70;99.90;;;;;;5089918;28;20024;-40
2021/08/06 05:15:08;;;;;;;2.03;1.60;;;18.70;99.90;;;;;;5090283;28;20025;-37
2021/08/06 05:17:34;;;;;;;1.80;1.70;;;18.70;99.90;;;;;;5089992;28;20387;-38
2021/08/06 05:20:00;;;;;;;3.45;2.05;;;18.80;99.90;;;;;;5090199;28;20031;-42
2021/08/06 05:22:25;;;;;;;1.80;1.70;;;18.80;99.90;;;;;;5089232;28;20073;-41
2021/08/06 05:24:51;;;;;;;1.90;1.80;;;18.80;99.90;;;;;;5089730;28;20026;-41
2021/08/06 05:27:16;;;;;;;2.38;1.92;;;18.90;99.90;;;;;;5090033;28;20035;-42
2021/08/06 05:29:45;;;;;;;3.03;2.10;;;18.90;99.90;;;;;;5089670;28;20028;-39
2021/08/06 05:32:10;;;;;;;3.67;2.13;;;18.90;99.90;;;;;;5089946;28;20070;-42
2021/08/06 05:34:36;;;;;;;3.13;2.33;;;18.90;99.90;;;;;;5089208;28;20028;-42
2021/08/06 05:37:01;;;;;;;2.30;2.10;;;18.90;99.90;;;;;;5090416;28;20517;-42
2021/08/06 05:39:27;;;;;;;2.83;2.53;;;18.90;99.90;;;;;;5089485;28;20028;-41
2021/08/06 05:41:52;;;;;;;1.98;1.88;;;18.90;99.90;;;;;;5089698;28;20463;-39
2021/08/06 05:44:18;;;;;;;2.20;2.00;;;18.90;99.90;;;;;;5089457;28;20069;-41
2021/08/06 05:46:43;;;;;;;2.50;2.30;;;18.90;99.90;;;;;;5089991;28;20012;-42
2021/08/06 05:49:12;;;;;;;2.70;2.42;;;18.90;99.90;;;;;;5087615;28;20016;-39
2021/08/06 05:51:37;;;;;;;5.05;2.35;;;19.00;99.90;;;;;;5096875;28;20038;-39
2021/08/06 05:54:04;;;;;;;3.03;2.10;;;18.90;99.90;;;;;;5087894;28;20024;-41
2021/08/06 05:56:30;;;;;;;2.55;2.35;;;18.90;99.90;;;;;;5086926;28;20142;-42
2021/08/06 05:58:55;;;;;;;2.80;2.10;;;19.00;99.90;;;;;;5088949;28;20043;-40
2021/08/06 06:01:22;;;;;;;3.15;1.92;;;18.90;99.90;;;;;;5087755;28;20032;-39
2021/08/06 06:03:48;;;;;;;2.78;2.30;;;18.90;99.90;;;;;;5088579;28;20031;-40
2021/08/06 06:06:13;;;;;;;2.20;2.00;;;18.90;99.90;;;;;;5087962;28;20028;-40
2021/08/06 06:08:39;;;;;;;3.78;1.98;;;18.80;99.90;;;;;;5087632;28;20039;-37
2021/08/06 06:11:05;;;;;;;2.20;1.80;;;18.80;99.90;;;;;;5088059;28;20024;-38
2021/08/06 06:13:30;;;;;;;2.47;2.17;;;18.80;99.90;;;;;;5088107;28;20072;-41
2021/08/06 06:15:59;;;;;;;2.20;1.80;;;18.80;99.90;;;;;;5087753;28;20031;-43
2021/08/06 06:18:28;;;;;;;2.80;1.92;;;18.80;99.90;;;;;;5087742;28;20012;-41
2021/08/06 06:20:54;;;;;;;1.90;1.80;;;18.80;99.90;;;;;;5088488;28;20393;-39
2021/08/06 06:23:20;;;;;;;2.08;1.88;;;18.80;99.90;;;;;;5087895;28;20028;-42
2021/08/06 06:25:45;;;;;;;2.80;1.58;;;18.80;99.90;;;;;;5088288;28;20028;-40
2021/08/06 06:28:11;;;;;;;2.25;1.90;;;18.70;99.90;;;;;;5087945;28;20701;-41
2021/08/06 06:30:37;;;;;;;2.30;2.10;;;18.70;99.90;;;;;;5088682;28;20024;-41
2021/08/06 06:33:04;;;;;;;2.78;2.20;;;18.60;99.90;;;;;;5089106;28;20030;-42
2021/08/06 06:35:30;;;;;;;1.75;1.65;;;18.60;99.90;;;;;;5087581;28;20020;-37
2021/08/06 06:37:56;;;;;;;2.00;1.90;;;18.60;99.90;;;;;;5088378;28;20020;-41
2021/08/06 06:40:23;;;;;;;2.65;1.70;;;18.60;99.90;;;;;;5088418;28;20028;-37
2021/08/06 06:42:49;;;;;;;2.10;1.90;;;18.60;99.90;;;;;;5089108;28;20107;-41
2021/08/06 06:45:15;;;;;;;2.20;2.00;;;18.70;99.90;;;;;;5088319;28;20423;-38
2021/08/06 06:47:44;;;;;;;2.17;1.98;;;18.80;99.90;;;;;;5089029;28;20590;-39
2021/08/06 06:50:13;;;;;;;1.83;1.63;;;18.90;99.90;;;;;;5089139;28;20091;-39
2021/08/06 06:52:39;;;;;;;1.90;1.80;;;18.90;99.90;;;;;;5087947;28;20188;-38
2021/08/06 06:55:06;;;;;;;1.90;1.70;;;19.00;99.90;;;;;;5089149;28;20468;-39
2021/08/06 06:57:31;;;;;;;2.05;1.95;;;19.10;99.90;;;;;;5087716;28;20421;-38
2021/08/06 06:59:57;;;;;;;2.00;1.90;;;19.10;99.90;;;;;;5088122;28;20039;-37
2021/08/06 07:02:23;;;;;;;3.88;2.10;;;19.20;99.90;;;;;;5088349;28;20017;-41
2021/08/06 07:04:48;;;;;;;2.13;1.88;;;19.30;99.90;;;;;;5088458;28;20024;-40
2021/08/06 07:07:14;;;;;;;2.30;2.10;;;19.40;99.90;;;;;;5088622;28;20116;-40
2021/08/06 07:09:40;;;;;;;3.25;3.03;;;19.50;99.90;;;;;;5087940;28;20130;-41
2021/08/06 07:12:06;;;;;;;2.60;2.40;;;19.60;99.90;;;;;;5089195;28;20023;-40
2021/08/06 07:14:32;;;;;;;2.90;2.70;;;19.70;99.90;;;;;;5087747;28;20098;-42
2021/08/06 07:16:59;;;;;;;2.70;2.50;;;19.80;99.90;;;;;;5089089;28;20467;-41
2021/08/06 07:19:24;;;;;;;3.13;2.88;;;19.90;99.90;;;;;;5087763;28;20044;-42
2021/08/06 07:21:50;;;;;;;3.03;2.83;;;20.00;99.90;;;;;;5088636;28;20345;-41
2021/08/06 07:24:17;;;;;;;3.17;2.97;;;20.00;99.90;;;;;;5088762;28;20870;-41
2021/08/06 07:26:43;;;;;;;3.75;3.28;;;20.10;99.90;;;;;;5087969;28;20024;-38
2021/08/06 07:29:08;;;;;;;3.63;3.33;;;20.20;99.90;;;;;;5090783;28;20058;-40
2021/08/06 07:31:34;;;;;;;3.38;3.08;;;20.20;99.90;;;;;;5091811;28;20028;-43
2021/08/06 07:34:05;;;;;;;4.30;3.90;;;20.20;99.90;;;;;;5091531;28;20024;-42
2021/08/06 07:36:31;;;;;;;3.25;3.05;;;20.10;99.90;;;;;;5091832;28;20024;-42
2021/08/06 07:38:56;;;;;;;4.43;4.03;;;20.10;99.90;;;;;;5092036;28;20521;-40
2021/08/06 07:41:28;;;;;;;4.47;4.07;;;20.00;99.90;;;;;;5091750;28;20028;-40
2021/08/06 07:43:54;;;;;;;4.43;4.03;;;20.00;99.90;;;;;;5091375;28;20496;-41
2021/08/06 07:46:19;;;;;;;3.55;3.25;;;19.90;99.90;;;;;;5090947;28;20114;-40
2021/08/06 07:48:45;;;;;;;3.72;3.42;;;20.00;99.90;;;;;;5091014;28;20164;-42
2021/08/06 07:51:20;;;;;;;3.47;3.10;;;20.10;99.90;;;;;;5092714;28;20020;-40
2021/08/06 07:53:45;;;;;;;3.20;3.00;;;20.20;99.90;;;;;;5091300;28;20035;-42
2021/08/06 07:56:13;;;;;;;4.00;3.58;;;20.30;99.90;;;;;;5091995;28;20028;-41
2021/08/06 07:58:39;;;;;;;4.03;3.30;;;20.40;99.90;;;;;;5090940;28;20024;-41
2021/08/06 08:01:05;;;;;;;3.78;3.50;;;20.40;99.90;;;;;;5091896;28;20043;-40
2021/08/06 08:03:30;;;;;;;4.43;4.03;;;20.40;99.90;;;;;;5091344;28;20024;-39
2021/08/06 08:05:56;;;;;;;5.47;4.97;;;20.40;99.90;;;;;;5091986;28;20494;-41
2021/08/06 08:08:21;;;;;;;4.55;4.25;;;20.60;99.90;;;;;;5091294;28;20493;-41
2021/08/06 08:10:47;;;;;;;4.60;4.20;;;20.60;99.90;;;;;;5090849;28;20032;-40
2021/08/06 08:13:12;;;;;;;5.40;4.93;;;20.70;99.90;;;;;;5091494;28;20468;-41
2021/08/06 08:15:38;;;;;;;5.93;5.10;;;20.70;99.90;;;;;;5090620;28;20085;-42
2021/08/06 08:18:04;;;;;;;4.68;4.28;;;20.70;99.90;;;;;;5091679;28;20028;-40
2021/08/06 08:20:30;;;;;;;5.00;4.47;;;20.60;99.90;;;;;;5090217;28;20089;-42
2021/08/06 08:22:55;;;;;;;3.95;3.65;;;20.60;99.90;;;;;;5090688;28;20016;-39
2021/08/06 08:25:21;;;;;;;5.43;4.80;;;20.50;99.90;;;;;;5091071;28;20031;-42
2021/08/06 08:27:47;;;;;;;4.88;4.03;;;20.40;99.90;;;;;;5092282;28;20022;-39
2021/08/06 08:30:12;;;;;;;6.28;4.00;;;20.40;99.90;;;;;;5088672;28;20456;-39
2021/08/06 08:32:38;;;;;;;4.47;4.05;;;20.60;99.90;;;;;;5089789;28;20142;-40
2021/08/06 08:35:05;;;;;;;4.82;4.43;;;20.70;99.90;;;;;;5091196;28;20031;-43
2021/08/06 08:37:31;;;;;;;5.18;4.70;;;20.80;99.90;;;;;;5089452;28;20546;-42
2021/08/06 08:39:56;;;;;;;4.20;3.75;;;20.80;99.90;;;;;;5090985;28;20115;-40
2021/08/06 08:42:23;;;;;;;4.70;4.10;;;20.70;99.90;;;;;;5090414;28;20020;-42
2021/08/06 08:44:49;;;;;;;4.72;4.00;;;20.70;99.90;;;;;;5091326;28;20142;-39
2021/08/06 08:47:24;;;;;;;5.20;4.70;;;20.60;99.90;;;;;;5090639;28;20024;-37
2021/08/06 08:49:53;;;;;;;4.82;4.43;;;20.60;99.90;;;;;;5071557;28;20525;-42
2021/08/06 08:52:21;;;;;;;5.45;4.60;;;20.70;99.90;;;;;;5085514;28;20020;-41
2021/08/06 08:54:48;;;;;;;5.45;4.22;;;20.90;99.90;;;;;;5091208;28;20069;-41
2021/08/06 08:57:21;;;;;;;4.32;3.50;;;21.10;99.90;;;;;;5090443;28;20100;-42
2021/08/06 08:59:48;;;;;;;4.57;3.50;;;21.20;99.90;;;;;;5090856;28;20466;-37
2021/08/06 09:02:17;;;;;;;4.18;3.20;;;21.20;99.90;;;;;;5091314;28;20020;-40
2021/08/06 09:04:45;;;;;;;3.50;3.08;;;21.00;99.90;;;;;;5089849;28;20367;-41
2021/08/06 09:07:30;;;;;;;3.72;2.95;;;20.80;99.90;;;;;;5090841;28;20099;-42
2021/08/06 09:10:08;;;;;;;4.40;4.00;;;20.60;99.90;;;;;;5090239;28;20048;-42
2021/08/06 09:12:59;;;;;;;5.38;4.45;;;20.50;99.90;;;;;;5089907;28;20042;-43
2021/08/06 09:15:43;;;;;;;4.13;3.58;;;20.50;99.90;;;;;;5089989;28;20429;-42
2021/08/06 09:18:27;;;;;;;4.57;3.63;;;20.60;99.90;;;;;;5090046;28;20032;-41
2021/08/06 09:20:55;;;;;;;4.28;3.88;;;20.80;99.90;;;;;;5070566;28;20039;-43
2021/08/06 09:23:40;;;;;;;3.63;3.30;;;20.90;99.90;;;;;;5084655;28;20020;-41
2021/08/06 09:26:08;;;;;;;3.50;3.30;;;20.90;99.90;;;;;;5069548;28;20043;-43
2021/08/06 09:28:54;;;;;;;4.55;3.70;;;21.00;99.90;;;;;;5085442;28;20032;-40
2021/08/06 09:31:21;;;;;;;3.30;3.00;;;21.00;99.90;;;;;;5081386;28;20099;-37
2021/08/06 09:33:46;;;;;;;5.07;3.40;;;21.00;99.90;;;;;;5088694;28;20020;-42
2021/08/06 09:36:16;;;;;;;3.30;2.83;;;21.10;99.90;;;;;;5089664;28;20035;-42
2021/08/06 09:38:42;;;;;;;4.65;3.25;;;21.40;99.90;;;;;;5087912;28;20023;-40
2021/08/06 09:41:08;;;;;;;2.92;2.40;;;21.50;99.90;;;;;;5088858;28;20054;-42
2021/08/06 09:43:34;;;;;;;4.63;2.58;;;21.70;99.90;;;;;;5088916;28;20504;-40
2021/08/06 09:46:00;;;;;;;2.63;2.42;;;21.90;99.90;;;;;;5090304;28;20090;-42
2021/08/06 09:48:26;;;;;;;3.25;2.20;;;22.00;99.90;;;;;;5087567;28;20452;-39
2021/08/06 09:50:53;;;;;;;3.45;2.15;;;22.10;99.90;;;;;;5089737;28;20468;-37
2021/08/06 09:53:24;;;;;;;2.30;2.10;;;22.10;99.90;;;;;;5089007;28;20605;-41
2021/08/06 09:55:50;;;;;;;3.55;2.40;;;22.10;99.90;;;;;;5089775;28;20019;-40
2021/08/06 09:58:19;;;;;;;4.05;2.63;;;22.20;99.90;;;;;;5089628;28;20464;-40
2021/08/06 10:00:49;;;;;;;2.20;2.00;;;22.40;99.90;;;;;;5088709;28;20126;-40
2021/08/06 10:03:29;;;;;;;2.53;2.30;;;22.50;99.90;;;;;;5089337;28;20050;-38
2021/08/06 10:06:12;;;;;;;3.03;2.28;;;22.60;99.90;;;;;;5089638;28;20020;-39
2021/08/06 10:08:39;;;;;;;4.00;2.35;;;22.50;99.70;;;;;;5087902;28;20471;-39
2021/08/06 10:11:05;;;;;;;3.05;2.28;;;22.40;98.70;;;;;;5089996;28;20048;-43
2021/08/06 10:13:32;;;;;;;3.28;2.40;;;22.20;98.90;;;;;;5088207;28;21426;-40
2021/08/06 10:15:57;;;;;;;3.25;2.53;;;21.90;99.30;;;;;;5088638;28;20027;-39
2021/08/06 10:18:23;;;;;;;4.07;2.90;;;21.60;99.90;;;;;;5088479;28;20016;-39
2021/08/06 10:20:49;;;;;;;2.70;2.50;;;21.30;99.90;;;;;;5089407;28;20043;-41
2021/08/06 10:23:15;;;;;;;3.65;2.97;;;21.20;99.90;;;;;;5089113;28;20027;-43
2021/08/06 10:25:41;;;;;;;4.30;3.22;;;21.20;99.90;;;;;;5087825;28;20028;-38
2021/08/06 10:28:07;;;;;;;3.75;3.20;;;21.20;99.90;;;;;;5089132;28;20050;-42
2021/08/06 10:30:39;;;;;;;6.03;3.17;;;21.10;99.90;;;;;;5087004;28;20040;-40
2021/08/06 10:33:23;;;;;;;4.28;2.72;;;20.90;99.90;;;;;;5089079;28;20436;-42
2021/08/06 10:36:07;;;;;;;5.13;2.78;;;20.90;99.90;;;;;;5088191;28;20036;-43
2021/08/06 10:38:44;;;;;;;3.78;2.35;;;20.90;99.90;;;;;;5085676;28;20035;-42
2021/08/06 10:41:19;;;;;;;2.72;2.47;;;20.90;99.90;;;;;;5089066;28;20040;-45
2021/08/06 10:43:48;;;;;;;3.72;2.35;;;21.00;99.90;;;;;;5088718;28;20036;-42
2021/08/06 10:46:15;;;;;;;2.10;1.60;;;21.30;99.90;;;;;;5089123;28;20027;-43
2021/08/06 10:48:45;;;;;;;5.13;2.03;;;21.60;99.90;;;;;;5082559;28;20051;-39
2021/08/06 10:51:16;;;;;;;3.33;1.80;;;21.90;99.90;;;;;;5087491;28;20028;-44
2021/08/06 10:53:46;;;;;;;2.30;1.40;;;22.00;99.90;;;;;;5088082;28;20421;-42
2021/08/06 10:56:33;;;;;;;4.47;1.80;;;22.10;99.90;;;;;;5089697;28;20039;-41
2021/08/06 10:59:14;;;;;;;2.22;1.60;;;22.30;99.10;;;;;;5089006;28;20024;-38
2021/08/06 11:01:45;;;;;;;4.05;1.50;;;22.30;99.10;;;;;;5087937;28;20056;-40
2021/08/06 11:04:16;;;;;;;2.75;1.55;;;22.40;99.40;;;;;;5092342;28;20109;-40
2021/08/06 11:06:47;;;;;;;2.73;2.00;;;22.50;99.40;;;;;;5092074;28;20043;-40
2021/08/06 11:09:25;;;;;;;3.10;1.90;;;22.70;98.80;;;;;;5092470;28;20289;-41
2021/08/06 11:12:11;;;;;;;3.08;1.70;;;22.80;98.50;;;;;;5091571;28;20032;-40
2021/08/06 11:14:58;;;;;;;1.92;1.55;;;22.90;98.40;;;;;;5072080;28;20032;-41
2021/08/06 11:17:33;;;;;;;4.30;1.67;;;23.10;98.30;;;;;;5089634;28;20039;-41
2021/08/06 11:20:11;;;;;;;2.42;2.08;;;23.20;98.10;;;;;;5091881;28;20058;-43
2021/08/06 11:22:46;;;;;;;2.05;1.85;;;23.20;97.90;;;;;;5091699;28;20016;-43
2021/08/06 11:25:16;;;;;;;3.15;1.33;;;23.10;97.20;;;;;;5092051;28;20483;-39
2021/08/06 11:27:48;;;;;;;3.15;1.20;;;22.90;97.70;;;;;;5090933;28;20119;-42
2021/08/06 11:30:19;;;;;;;2.03;1.15;;;22.70;98.10;;;;;;5092776;28;20032;-38
2021/08/06 11:32:48;;;;;;;1.88;1.50;;;22.60;98.40;;;;;;5091313;28;20391;-43
2021/08/06 11:35:16;;;;;;;2.45;1.45;;;22.60;97.70;;;;;;5071729;28;20031;-41
2021/08/06 11:38:03;;;;;;;3.05;1.63;;;22.60;97.50;;;;;;5085456;28;20051;-43
2021/08/06 11:40:34;;;;;;;1.75;1.30;;;22.70;97.70;;;;;;5084531;28;20070;-38
2021/08/06 11:43:26;;;;;;;2.35;1.48;;;22.80;97.60;;;;;;5092765;28;20020;-43
2021/08/06 11:46:08;;;;;;;3.88;2.13;;;22.90;97.20;;;;;;5087566;28;20028;-41
2021/08/06 11:48:57;;;;;;;2.43;1.50;;;23.10;96.50;;;;;;5091267;28;20028;-39
2021/08/06 11:51:22;;;;;;;1.80;1.20;;;23.30;96.40;;;;;;5091853;28;20031;-39
2021/08/06 11:53:48;;;;;;;3.28;1.38;;;23.40;96.50;;;;;;5091232;28;20476;-42
2021/08/06 11:56:16;;;;;;;1.50;1.40;;;23.40;95.40;;;;;;5092398;28;20035;-42
2021/08/06 11:58:46;;;;;;;2.60;2.00;;;23.40;95.50;;;;;;5091153;28;20020;-40
2021/08/06 12:01:21;;;;;;;2.65;1.80;;;23.40;95.50;;;;;;5091519;28;20092;-39
2021/08/06 12:03:51;;;;;;;1.75;1.20;;;23.40;95.60;;;;;;5091241;28;20027;-41
2021/08/06 12:06:20;;;;;;;1.00;0.90;;;23.40;95.90;;;;;;5089569;28;20378;-42
2021/08/06 12:08:51;;;;;;;1.35;1.02;;;23.50;96.00;;;;;;5088752;28;20031;-41
2021/08/06 12:11:25;;;;;;;1.40;0.90;;;23.50;95.90;;;;;;5090033;28;20032;-43
2021/08/06 12:13:50;;;;;;;0.90;0.90;;;23.50;95.80;;;;;;5088916;28;20040;-44
2021/08/06 12:16:19;;;;;;;0.80;0.80;;;23.40;95.40;;;;;;5089853;28;20109;-44
2021/08/06 12:18:49;;;;;;;1.33;1.15;;;23.30;95.50;;;;;;5089794;28;20082;-42
2021/08/06 12:21:22;;;;;;;2.15;0.90;;;23.20;95.50;;;;;;5095646;28;20035;-44
2021/08/06 12:23:53;;;;;;;1.90;1.00;;;23.10;95.80;;;;;;5091123;28;20455;-43
2021/08/06 12:26:39;;;;;;;1.43;1.20;;;22.90;95.50;;;;;;5091048;28;20028;-42
2021/08/06 12:29:09;;;;;;;2.90;1.20;;;22.90;95.90;;;;;;5090864;28;20139;-39
2021/08/06 12:31:54;;;;;;;1.60;1.02;;;22.90;95.90;;;;;;5088577;28;20027;-37
2021/08/06 12:34:35;;;;;;;1.95;0.80;;;23.00;96.30;;;;;;5089323;28;20012;-40
2021/08/06 12:37:09;;;;;;;1.17;1.08;;;23.10;96.60;;;;;;5089019;28;20028;-41
2021/08/06 12:39:53;;;;;;;1.52;0.80;;;23.20;96.50;;;;;;5090099;28;20055;-42
2021/08/06 12:42:21;;;;;;;1.48;0.90;;;23.40;96.40;;;;;;5090523;28;20111;-38
2021/08/06 12:44:56;;;;;;;1.45;0.95;;;23.50;96.30;;;;;;5090472;28;20523;-36
2021/08/06 12:47:22;;;;;;;0.80;0.80;;;23.60;96.20;;;;;;5090817;28;20103;-41
2021/08/06 12:49:58;;;;;;;0.80;0.80;;;23.60;95.80;;;;;;5089671;28;20044;-41
2021/08/06 12:52:36;;;;;;;0.90;0.90;;;23.70;95.40;;;;;;5090034;28;20403;-41
2021/08/06 12:55:19;;;;;;;1.30;1.08;;;23.70;95.50;;;;;;5090935;28;20166;-41